sensor_id;sensor_type;location;lat;lon;timestamp;temperature;humidity
48019;DHT22;33786;48.690;9.562;2023-04-24T00:00:04;10.70;99.90
48019;DHT22;33786;48.690;9.562;2023-04-24T00:02:36;10.60;99.90
48019;DHT22;33786;48.690;9.562;2023-04-24T00:05:07;10.60;99.90
48019;DHT22;33786;48.690;9.562;2023-04-24T00:07:34;10.60;99.90
48019;DHT22;33786;48.690;9.562;2023-04-24T00:10:01;10.60;99.90
48019;DHT22;33786;48.690;9.562;2023-04-24T00:12:28;10.60;99.90
48019;DHT22;33786;48.690;9.562;2023-04-24T00:14:55;10.60;99.90
48019;DHT22;33786;48.690;9.562;2023-04-24T00:17:21;10.50;99.90
48019;DHT22;33786;48.690;9.562;2023-04-24T00:19:48;10.50;99.90
48019;DHT22;33786;48.690;9.562;2023-04-24T00:22:17;10.50;99.90
48019;DHT22;33786;48.690;9.562;2023-04-24T00:24:43;10.50;99.90
48019;DHT22;33786;48.690;9.562;2023-04-24T00:27:11;10.50;99.90
48019;DHT22;33786;48.690;9.562;2023-04-24T00:29:37;10.50;99.90
48019;DHT22;33786;48.690;9.562;2023-04-24T00:32:04;10.40;99.90
48019;DHT22;33786;48.690;9.562;2023-04-24T00:34:31;10.50;99.90
48019;DHT22;33786;48.690;9.562;2023-04-24T00:36:58;10.40;99.90
48019;DHT22;33786;48.690;9.562;2023-04-24T00:39:25;10.40;99.90
48019;DHT22;33786;48.690;9.562;2023-04-24T00:41:53;10.30;99.90
48019;DHT22;33786;48.690;9.562;2023-04-24T00:44:19;10.30;99.90
48019;DHT22;33786;48.690;9.562;2023-04-24T00:46:46;10.30;99.90
48019;DHT22;33786;48.690;9.562;2023-04-24T00:49:13;10.30;99.90
48019;DHT22;33786;48.690;9.562;2023-04-24T00:51:40;10.40;99.90
48019;DHT22;33786;48.690;9.562;2023-04-24T00:54:15;10.40;99.90
48019;DHT22;33786;48.690;9.562;2023-04-24T00:56:42;10.30;99.90
48019;DHT22;33786;48.690;9.562;2023-04-24T00:59:09;10.30;99.90
48019;DHT22;33786;48.690;9.562;2023-04-24T01:01:36;10.30;99.90
48019;DHT22;33786;48.690;9.562;2023-04-24T01:04:03;10.30;99.90
48019;DHT22;33786;48.690;9.562;2023-04-24T01:06:30;10.30;99.90
48019;DHT22;33786;48.690;9.562;2023-04-24T01:08:58;10.30;99.90
48019;DHT22;33786;48.690;9.562;2023-04-24T01:11:25;10.30;99.90
48019;DHT22;33786;48.690;9.562;2023-04-24T01:13:52;10.30;99.90
48019;DHT22;33786;48.690;9.562;2023-04-24T01:16:19;10.30;99.90
48019;DHT22;33786;48.690;9.562;2023-04-24T01:18:47;10.30;99.90
48019;DHT22;33786;48.690;9.562;2023-04-24T01:21:15;10.20;99.90
48019;DHT22;33786;48.690;9.562;2023-04-24T01:23:45;10.30;99.90
48019;DHT22;33786;48.690;9.562;2023-04-24T01:26:12;10.30;99.90
48019;DHT22;33786;48.690;9.562;2023-04-24T01:28:39;10.20;99.90
48019;DHT22;33786;48.690;9.562;2023-04-24T01:31:06;10.20;99.90
48019;DHT22;33786;48.690;9.562;2023-04-24T01:33:33;10.30;99.90
48019;DHT22;33786;48.690;9.562;2023-04-24T01:36:00;10.30;99.90
48019;DHT22;33786;48.690;9.562;2023-04-24T01:38:27;10.30;99.90
48019;DHT22;33786;48.690;9.562;2023-04-24T01:40:54;10.30;99.90
48019;DHT22;33786;48.690;9.562;2023-04-24T01:43:20;10.30;99.90
48019;DHT22;33786;48.690;9.562;2023-04-24T01:45:48;10.30;99.90
48019;DHT22;33786;48.690;9.562;2023-04-24T01:48:14;10.30;99.90
48019;DHT22;33786;48.690;9.562;2023-04-24T01:50:41;10.30;99.90
48019;DHT22;33786;48.690;9.562;2023-04-24T01:53:08;10.30;99.90
48019;DHT22;33786;48.690;9.562;2023-04-24T01:55:35;10.20;99.90
48019;DHT22;33786;48.690;9.562;2023-04-24T01:58:01;10.20;99.90
48019;DHT22;33786;48.690;9.562;2023-04-24T02:00:28;10.20;99.90
48019;DHT22;33786;48.690;9.562;2023-04-24T02:02:55;10.20;99.90
48019;DHT22;33786;48.690;9.562;2023-04-24T02:05:22;10.30;99.90
48019;DHT22;33786;48.690;9.562;2023-04-24T02:07:49;10.30;99.90
48019;DHT22;33786;48.690;9.562;2023-04-24T02:10:15;10.20;99.90
48019;DHT22;33786;48.690;9.562;2023-04-24T02:12:42;10.20;99.90
48019;DHT22;33786;48.690;9.562;2023-04-24T02:15:09;10.20;99.90
48019;DHT22;33786;48.690;9.562;2023-04-24T02:17:36;10.20;99.90
48019;DHT22;33786;48.690;9.562;2023-04-24T02:20:03;10.20;99.90
48019;DHT22;33786;48.690;9.562;2023-04-24T02:22:30;10.20;99.90
48019;DHT22;33786;48.690;9.562;2023-04-24T02:24:57;10.20;99.90
48019;DHT22;33786;48.690;9.562;2023-04-24T02:27:23;10.30;99.90
48019;DHT22;33786;48.690;9.562;2023-04-24T02:29:51;10.30;99.90
48019;DHT22;33786;48.690;9.562;2023-04-24T02:32:17;10.20;99.90
48019;DHT22;33786;48.690;9.562;2023-04-24T02:34:44;10.30;99.90
48019;DHT22;33786;48.690;9.562;2023-04-24T02:37:11;10.20;99.90
48019;DHT22;33786;48.690;9.562;2023-04-24T02:39:37;10.20;99.90
48019;DHT22;33786;48.690;9.562;2023-04-24T02:42:04;10.20;99.90
48019;DHT22;33786;48.690;9.562;2023-04-24T02:44:31;10.30;99.90
48019;DHT22;33786;48.690;9.562;2023-04-24T02:46:58;10.30;99.90
48019;DHT22;33786;48.690;9.562;2023-04-24T02:49:25;10.30;99.90
48019;DHT22;33786;48.690;9.562;2023-04-24T02:51:52;10.30;99.90
48019;DHT22;33786;48.690;9.562;2023-04-24T02:54:19;10.30;99.90
48019;DHT22;33786;48.690;9.562;2023-04-24T02:56:46;10.30;99.90
48019;DHT22;33786;48.690;9.562;2023-04-24T02:59:12;10.30;99.90
48019;DHT22;33786;48.690;9.562;2023-04-24T03:01:39;10.30;99.90
48019;DHT22;33786;48.690;9.562;2023-04-24T03:04:06;10.20;99.90
48019;DHT22;33786;48.690;9.562;2023-04-24T03:06:33;10.30;99.90
48019;DHT22;33786;48.690;9.562;2023-04-24T03:09:02;10.20;99.90
48019;DHT22;33786;48.690;9.562;2023-04-24T03:11:29;10.20;99.90
48019;DHT22;33786;48.690;9.562;2023-04-24T03:13:56;10.20;99.90
48019;DHT22;33786;48.690;9.562;2023-04-24T03:16:23;10.10;99.90
48019;DHT22;33786;48.690;9.562;2023-04-24T03:18:50;10.10;99.90
48019;DHT22;33786;48.690;9.562;2023-04-24T03:21:16;10.10;99.90
48019;DHT22;33786;48.690;9.562;2023-04-24T03:23:43;10.10;99.90
48019;DHT22;33786;48.690;9.562;2023-04-24T03:26:10;10.10;99.90
48019;DHT22;33786;48.690;9.562;2023-04-24T03:28:37;10.10;99.90
48019;DHT22;33786;48.690;9.562;2023-04-24T03:31:03;10.10;99.90
48019;DHT22;33786;48.690;9.562;2023-04-24T03:33:31;10.10;99.90
48019;DHT22;33786;48.690;9.562;2023-04-24T03:35:57;10.10;99.90
48019;DHT22;33786;48.690;9.562;2023-04-24T03:38:24;10.20;99.90
48019;DHT22;33786;48.690;9.562;2023-04-24T03:40:51;10.10;99.90
48019;DHT22;33786;48.690;9.562;2023-04-24T03:43:18;10.20;99.90
48019;DHT22;33786;48.690;9.562;2023-04-24T03:45:44;10.00;99.90
48019;DHT22;33786;48.690;9.562;2023-04-24T03:48:11;10.10;99.90
48019;DHT22;33786;48.690;9.562;2023-04-24T03:50:38;10.10;99.90
48019;DHT22;33786;48.690;9.562;2023-04-24T03:53:04;10.10;99.90
48019;DHT22;33786;48.690;9.562;2023-04-24T03:55:31;10.10;99.90
48019;DHT22;33786;48.690;9.562;2023-04-24T03:57:58;10.10;99.90
48019;DHT22;33786;48.690;9.562;2023-04-24T04:00:24;10.10;99.90
48019;DHT22;33786;48.690;9.562;2023-04-24T04:02:52;10.10;99.90
48019;DHT22;33786;48.690;9.562;2023-04-24T04:05:20;10.20;99.90
48019;DHT22;33786;48.690;9.562;2023-04-24T04:07:46;10.10;99.90
48019;DHT22;33786;48.690;9.562;2023-04-24T04:10:13;10.10;99.90
48019;DHT22;33786;48.690;9.562;2023-04-24T04:12:40;10.00;99.90
48019;DHT22;33786;48.690;9.562;2023-04-24T04:15:07;10.10;99.90
48019;DHT22;33786;48.690;9.562;2023-04-24T04:17:34;10.10;99.90
48019;DHT22;33786;48.690;9.562;2023-04-24T04:20:01;10.10;99.90
48019;DHT22;33786;48.690;9.562;2023-04-24T04:22:27;10.10;99.90
48019;DHT22;33786;48.690;9.562;2023-04-24T04:24:54;10.10;99.90
48019;DHT22;33786;48.690;9.562;2023-04-24T04:27:21;10.10;99.90
48019;DHT22;33786;48.690;9.562;2023-04-24T04:29:48;10.10;99.90
48019;DHT22;33786;48.690;9.562;2023-04-24T04:32:14;10.10;99.90
48019;DHT22;33786;48.690;9.562;2023-04-24T04:34:42;10.10;99.90
48019;DHT22;33786;48.690;9.562;2023-04-24T04:37:09;10.00;99.90
48019;DHT22;33786;48.690;9.562;2023-04-24T04:39:37;10.10;99.90
48019;DHT22;33786;48.690;9.562;2023-04-24T04:42:04;10.00;99.90
48019;DHT22;33786;48.690;9.562;2023-04-24T04:44:31;10.00;99.90
48019;DHT22;33786;48.690;9.562;2023-04-24T04:46:57;10.00;99.90
48019;DHT22;33786;48.690;9.562;2023-04-24T04:49:25;10.10;99.90
48019;DHT22;33786;48.690;9.562;2023-04-24T04:51:54;10.10;99.90
48019;DHT22;33786;48.690;9.562;2023-04-24T04:54:21;10.10;99.90
48019;DHT22;33786;48.690;9.562;2023-04-24T04:56:51;10.10;99.90
48019;DHT22;33786;48.690;9.562;2023-04-24T04:59:18;10.10;99.90
48019;DHT22;33786;48.690;9.562;2023-04-24T05:01:45;10.20;99.90
48019;DHT22;33786;48.690;9.562;2023-04-24T05:04:11;10.20;99.90
48019;DHT22;33786;48.690;9.562;2023-04-24T05:06:38;10.30;99.90
48019;DHT22;33786;48.690;9.562;2023-04-24T05:09:05;10.40;99.90
48019;DHT22;33786;48.690;9.562;2023-04-24T05:11:33;10.50;99.90
48019;DHT22;33786;48.690;9.562;2023-04-24T05:14:00;10.40;99.90
48019;DHT22;33786;48.690;9.562;2023-04-24T05:16:27;10.20;99.90
48019;DHT22;33786;48.690;9.562;2023-04-24T05:18:54;10.00;99.90
48019;DHT22;33786;48.690;9.562;2023-04-24T05:21:21;9.80;99.90
48019;DHT22;33786;48.690;9.562;2023-04-24T05:23:47;9.60;99.90
48019;DHT22;33786;48.690;9.562;2023-04-24T05:26:14;9.50;99.90
48019;DHT22;33786;48.690;9.562;2023-04-24T05:28:41;9.40;99.90
48019;DHT22;33786;48.690;9.562;2023-04-24T05:31:08;9.30;99.90
48019;DHT22;33786;48.690;9.562;2023-04-24T05:33:35;9.30;99.90
48019;DHT22;33786;48.690;9.562;2023-04-24T05:36:02;9.20;99.90
48019;DHT22;33786;48.690;9.562;2023-04-24T05:38:28;9.20;99.90
48019;DHT22;33786;48.690;9.562;2023-04-24T05:40:55;9.30;99.90
48019;DHT22;33786;48.690;9.562;2023-04-24T05:43:22;9.20;99.90
48019;DHT22;33786;48.690;9.562;2023-04-24T05:45:48;9.20;99.90
48019;DHT22;33786;48.690;9.562;2023-04-24T05:48:15;9.20;99.90
48019;DHT22;33786;48.690;9.562;2023-04-24T05:50:42;9.10;99.90
48019;DHT22;33786;48.690;9.562;2023-04-24T05:53:09;9.10;99.90
48019;DHT22;33786;48.690;9.562;2023-04-24T05:55:37;9.10;99.90
48019;DHT22;33786;48.690;9.562;2023-04-24T05:58:03;9.10;99.90
48019;DHT22;33786;48.690;9.562;2023-04-24T06:00:30;9.30;99.90
48019;DHT22;33786;48.690;9.562;2023-04-24T06:02:57;9.30;99.90
48019;DHT22;33786;48.690;9.562;2023-04-24T06:05:25;9.40;99.90
48019;DHT22;33786;48.690;9.562;2023-04-24T06:07:52;9.50;99.90
48019;DHT22;33786;48.690;9.562;2023-04-24T06:10:19;9.60;99.90
48019;DHT22;33786;48.690;9.562;2023-04-24T06:12:46;9.60;99.90
48019;DHT22;33786;48.690;9.562;2023-04-24T06:15:12;9.60;99.90
48019;DHT22;33786;48.690;9.562;2023-04-24T06:17:39;9.70;99.90
48019;DHT22;33786;48.690;9.562;2023-04-24T06:20:06;9.80;99.90
48019;DHT22;33786;48.690;9.562;2023-04-24T06:22:34;9.90;99.90
48019;DHT22;33786;48.690;9.562;2023-04-24T06:25:02;9.90;99.90
48019;DHT22;33786;48.690;9.562;2023-04-24T06:27:28;10.00;99.90
48019;DHT22;33786;48.690;9.562;2023-04-24T06:29:55;10.10;99.90
48019;DHT22;33786;48.690;9.562;2023-04-24T06:32:22;10.20;99.90
48019;DHT22;33786;48.690;9.562;2023-04-24T06:34:51;10.30;99.90
48019;DHT22;33786;48.690;9.562;2023-04-24T06:37:19;10.50;99.90
48019;DHT22;33786;48.690;9.562;2023-04-24T06:39:46;10.80;99.90
48019;DHT22;33786;48.690;9.562;2023-04-24T06:42:13;10.90;99.90
48019;DHT22;33786;48.690;9.562;2023-04-24T06:44:40;11.20;99.90
48019;DHT22;33786;48.690;9.562;2023-04-24T06:47:07;11.40;99.90
48019;DHT22;33786;48.690;9.562;2023-04-24T06:49:35;11.60;99.90
48019;DHT22;33786;48.690;9.562;2023-04-24T06:52:02;12.80;99.90
48019;DHT22;33786;48.690;9.562;2023-04-24T06:54:30;16.80;99.90
48019;DHT22;33786;48.690;9.562;2023-04-24T06:56:57;20.30;95.40
48019;DHT22;33786;48.690;9.562;2023-04-24T06:59:24;21.60;91.90
48019;DHT22;33786;48.690;9.562;2023-04-24T07:01:51;23.10;87.50
48019;DHT22;33786;48.690;9.562;2023-04-24T07:04:21;24.30;83.80
48019;DHT22;33786;48.690;9.562;2023-04-24T07:06:48;25.70;76.10
48019;DHT22;33786;48.690;9.562;2023-04-24T07:09:17;26.00;76.40
48019;DHT22;33786;48.690;9.562;2023-04-24T07:11:45;26.10;74.00
48019;DHT22;33786;48.690;9.562;2023-04-24T07:14:12;26.00;73.20
48019;DHT22;33786;48.690;9.562;2023-04-24T07:16:39;26.00;72.10
48019;DHT22;33786;48.690;9.562;2023-04-24T07:19:06;25.80;72.40
48019;DHT22;33786;48.690;9.562;2023-04-24T07:21:33;26.40;72.70
48019;DHT22;33786;48.690;9.562;2023-04-24T07:24:00;26.40;70.60
48019;DHT22;33786;48.690;9.562;2023-04-24T07:26:28;25.80;70.90
48019;DHT22;33786;48.690;9.562;2023-04-24T07:28:54;25.20;71.90
48019;DHT22;33786;48.690;9.562;2023-04-24T07:31:21;25.20;72.30
48019;DHT22;33786;48.690;9.562;2023-04-24T07:33:48;24.80;71.70
48019;DHT22;33786;48.690;9.562;2023-04-24T07:36:15;25.00;71.50
48019;DHT22;33786;48.690;9.562;2023-04-24T07:38:45;23.20;73.40
48019;DHT22;33786;48.690;9.562;2023-04-24T07:41:12;21.90;78.20
48019;DHT22;33786;48.690;9.562;2023-04-24T07:43:39;21.00;81.60
48019;DHT22;33786;48.690;9.562;2023-04-24T07:46:07;19.10;85.40
48019;DHT22;33786;48.690;9.562;2023-04-24T07:48:34;17.70;88.60
48019;DHT22;33786;48.690;9.562;2023-04-24T07:51:01;16.50;91.80
48019;DHT22;33786;48.690;9.562;2023-04-24T07:53:28;15.60;93.10
48019;DHT22;33786;48.690;9.562;2023-04-24T07:55:55;14.90;95.50
48019;DHT22;33786;48.690;9.562;2023-04-24T07:58:22;14.30;97.10
48019;DHT22;33786;48.690;9.562;2023-04-24T08:00:49;13.80;99.20
48019;DHT22;33786;48.690;9.562;2023-04-24T08:03:16;13.10;99.90
48019;DHT22;33786;48.690;9.562;2023-04-24T08:05:46;12.50;99.90
48019;DHT22;33786;48.690;9.562;2023-04-24T08:08:14;11.90;99.90
48019;DHT22;33786;48.690;9.562;2023-04-24T08:10:42;11.50;99.90
48019;DHT22;33786;48.690;9.562;2023-04-24T08:13:10;11.40;99.90
48019;DHT22;33786;48.690;9.562;2023-04-24T08:15:38;11.50;99.90
48019;DHT22;33786;48.690;9.562;2023-04-24T08:18:06;12.20;99.90
48019;DHT22;33786;48.690;9.562;2023-04-24T08:20:33;14.00;99.90
48019;DHT22;33786;48.690;9.562;2023-04-24T08:23:00;16.30;99.90
48019;DHT22;33786;48.690;9.562;2023-04-24T08:25:27;17.40;97.90
48019;DHT22;33786;48.690;9.562;2023-04-24T08:27:54;17.60;97.00
48019;DHT22;33786;48.690;9.562;2023-04-24T08:30:22;17.30;96.50
48019;DHT22;33786;48.690;9.562;2023-04-24T08:32:50;16.60;96.50
48019;DHT22;33786;48.690;9.562;2023-04-24T08:35:18;17.00;97.00
48019;DHT22;33786;48.690;9.562;2023-04-24T08:37:45;16.90;96.40
48019;DHT22;33786;48.690;9.562;2023-04-24T08:40:14;16.10;95.80
48019;DHT22;33786;48.690;9.562;2023-04-24T08:42:42;15.20;97.00
48019;DHT22;33786;48.690;9.562;2023-04-24T08:45:11;14.20;99.80
48019;DHT22;33786;48.690;9.562;2023-04-24T08:47:39;14.10;99.90
48019;DHT22;33786;48.690;9.562;2023-04-24T08:50:06;13.90;99.90
48019;DHT22;33786;48.690;9.562;2023-04-24T08:52:34;13.60;99.90
48019;DHT22;33786;48.690;9.562;2023-04-24T08:55:01;13.40;99.90
48019;DHT22;33786;48.690;9.562;2023-04-24T08:57:29;13.60;99.90
48019;DHT22;33786;48.690;9.562;2023-04-24T08:59:56;13.60;97.60
48019;DHT22;33786;48.690;9.562;2023-04-24T09:02:24;13.40;99.10
48019;DHT22;33786;48.690;9.562;2023-04-24T09:04:52;13.70;98.20
48019;DHT22;33786;48.690;9.562;2023-04-24T09:07:19;14.60;98.30
48019;DHT22;33786;48.690;9.562;2023-04-24T09:09:46;14.80;97.10
48019;DHT22;33786;48.690;9.562;2023-04-24T09:12:13;14.40;96.60
48019;DHT22;33786;48.690;9.562;2023-04-24T09:14:40;14.70;97.00
48019;DHT22;33786;48.690;9.562;2023-04-24T09:17:11;15.90;96.90
48019;DHT22;33786;48.690;9.562;2023-04-24T09:19:39;17.40;94.10
48019;DHT22;33786;48.690;9.562;2023-04-24T09:22:07;18.70;93.30
48019;DHT22;33786;48.690;9.562;2023-04-24T09:24:34;18.60;91.00
48019;DHT22;33786;48.690;9.562;2023-04-24T09:27:01;18.30;90.20
48019;DHT22;33786;48.690;9.562;2023-04-24T09:29:28;19.40;88.60
48019;DHT22;33786;48.690;9.562;2023-04-24T09:31:55;19.10;87.70
48019;DHT22;33786;48.690;9.562;2023-04-24T09:34:23;18.20;88.00
48019;DHT22;33786;48.690;9.562;2023-04-24T09:36:50;16.30;88.20
48019;DHT22;33786;48.690;9.562;2023-04-24T09:39:18;15.50;91.00
48019;DHT22;33786;48.690;9.562;2023-04-24T09:41:53;14.80;92.10
48019;DHT22;33786;48.690;9.562;2023-04-24T09:44:25;14.40;92.60
48019;DHT22;33786;48.690;9.562;2023-04-24T09:46:56;14.40;93.70
48019;DHT22;33786;48.690;9.562;2023-04-24T09:49:23;14.40;93.60
48019;DHT22;33786;48.690;9.562;2023-04-24T09:51:51;14.30;93.10
48019;DHT22;33786;48.690;9.562;2023-04-24T09:54:19;14.50;91.50
48019;DHT22;33786;48.690;9.562;2023-04-24T09:56:50;14.70;92.10
48019;DHT22;33786;48.690;9.562;2023-04-24T09:59:18;14.30;90.90
48019;DHT22;33786;48.690;9.562;2023-04-24T10:01:45;14.30;92.30
48019;DHT22;33786;48.690;9.562;2023-04-24T10:06:44;14.30;90.70
48019;DHT22;33786;48.690;9.562;2023-04-24T10:09:11;14.10;90.30
48019;DHT22;33786;48.690;9.562;2023-04-24T10:11:42;13.90;90.60
48019;DHT22;33786;48.690;9.562;2023-04-24T10:14:21;13.80;91.10
48019;DHT22;33786;48.690;9.562;2023-04-24T10:16:48;13.70;90.70
48019;DHT22;33786;48.690;9.562;2023-04-24T10:19:16;13.60;90.70
